createdAt,value
2024-04-30T00:00:04.295Z,94886.00
2024-04-30T00:01:04.425Z,94883.00
2024-04-30T00:02:04.345Z,94882.00
2024-04-30T00:03:04.394Z,94884.00
2024-04-30T00:04:04.535Z,94889.00
2024-04-30T00:05:04.713Z,94891.00
2024-04-30T00:06:04.510Z,94887.00
2024-04-30T00:07:04.571Z,94891.00
2024-04-30T00:08:04.601Z,94888.00
2024-04-30T00:09:04.643Z,94885.00
2024-04-30T00:10:04.686Z,94886.00
2024-04-30T00:11:04.730Z,94892.00
2024-04-30T00:12:04.719Z,94892.00
2024-04-30T00:13:04.773Z,94891.00
2024-04-30T00:14:04.806Z,94891.00
2024-04-30T00:15:04.843Z,94894.00
2024-04-30T00:16:04.888Z,94892.00
2024-04-30T00:17:04.885Z,94892.00
2024-04-30T00:18:04.981Z,94895.00
2024-04-30T00:19:05.050Z,94898.00
2024-04-30T00:20:05.093Z,94899.00
2024-04-30T00:21:05.061Z,94898.00
2024-04-30T00:22:05.114Z,94898.00
2024-04-30T00:23:05.116Z,94900.00
2024-04-30T00:24:05.169Z,94900.00
2024-04-30T00:25:05.271Z,94904.00
2024-04-30T00:26:05.220Z,94903.00
2024-04-30T00:27:05.273Z,94898.00
2024-04-30T00:28:05.322Z,94901.00
2024-04-30T00:29:05.309Z,94900.00
2024-04-30T00:30:05.363Z,94899.00
2024-04-30T00:31:05.442Z,94902.00
2024-04-30T00:32:05.453Z,94905.00
2024-04-30T00:33:05.661Z,94906.00
2024-04-30T00:34:05.573Z,94909.00
2024-04-30T00:35:05.527Z,94910.00
2024-04-30T00:36:05.578Z,94909.00
2024-04-30T00:37:05.659Z,94908.00
2024-04-30T00:38:05.663Z,94907.00
2024-04-30T00:39:05.696Z,94909.00
2024-04-30T00:40:05.787Z,94910.00
2024-04-30T00:41:05.774Z,94908.00
2024-04-30T00:42:05.798Z,94907.00
2024-04-30T00:43:05.853Z,94907.00
2024-04-30T00:44:05.850Z,94907.00
2024-04-30T00:45:05.908Z,94911.00
2024-04-30T00:46:05.997Z,94915.00
2024-04-30T00:47:05.983Z,94915.00
2024-04-30T00:48:06.230Z,94913.00
2024-04-30T00:49:06.139Z,94912.00
2024-04-30T00:50:06.111Z,94914.00
2024-04-30T00:51:06.139Z,94918.00
2024-04-30T00:52:06.259Z,94916.00
2024-04-30T00:53:06.212Z,94917.00
2024-04-30T00:54:06.266Z,94919.00
2024-04-30T00:55:06.316Z,94917.00
2024-04-30T00:56:06.362Z,94914.00
2024-04-30T00:57:06.352Z,94912.00
2024-04-30T00:58:06.442Z,94908.00
2024-04-30T00:59:06.427Z,94905.00
2024-04-30T01:00:06.526Z,94908.00
2024-04-30T01:01:06.734Z,94913.00
2024-04-30T01:02:06.554Z,94916.00
2024-04-30T01:03:06.650Z,94916.00
2024-04-30T01:04:06.635Z,94915.00
2024-04-30T01:05:06.698Z,94907.00
2024-04-30T01:06:06.695Z,94900.00
2024-04-30T01:07:06.746Z,94902.00
2024-04-30T01:08:06.773Z,94908.00
2024-04-30T01:09:06.811Z,94910.00
2024-04-30T01:10:06.901Z,94920.00
2024-04-30T01:11:06.883Z,94916.00
2024-04-30T01:12:06.923Z,94915.00
2024-04-30T01:13:07.051Z,94914.00
2024-04-30T01:14:07.006Z,94919.00
2024-04-30T01:15:07.029Z,94919.00
2024-04-30T01:16:07.073Z,94920.00
2024-04-30T01:17:07.138Z,94924.00
2024-04-30T01:18:07.191Z,94919.00
2024-04-30T01:19:07.175Z,94918.00
2024-04-30T01:20:07.212Z,94917.00
2024-04-30T01:21:07.249Z,94917.00
2024-04-30T01:22:07.293Z,94916.00
2024-04-30T01:23:07.305Z,94917.00
2024-04-30T01:24:07.361Z,94916.00
2024-04-30T01:25:07.426Z,94914.00
2024-04-30T01:26:07.412Z,94915.00
2024-04-30T01:27:07.452Z,94916.00
2024-04-30T01:28:07.585Z,94917.00
2024-04-30T01:29:07.531Z,94916.00
2024-04-30T01:30:07.565Z,94919.00
2024-04-30T01:31:07.627Z,94923.00
2024-04-30T01:32:07.692Z,94926.00
2024-04-30T01:33:07.732Z,94928.00
2024-04-30T01:34:07.736Z,94924.00
2024-04-30T01:35:07.743Z,94922.00
2024-04-30T01:36:07.770Z,94919.00
2024-04-30T01:37:07.818Z,94915.00
2024-04-30T01:38:07.839Z,94917.00
2024-04-30T01:39:07.913Z,94918.00
2024-04-30T01:40:07.974Z,94918.00
2024-04-30T01:41:07.947Z,94923.00
2024-04-30T01:42:08.008Z,94924.00
2024-04-30T01:43:08.111Z,94922.00
2024-04-30T01:44:08.094Z,94918.00
2024-04-30T01:45:08.131Z,94916.00
2024-04-30T01:46:08.171Z,94918.00
2024-04-30T01:47:08.200Z,94920.00
2024-04-30T01:48:08.305Z,94920.00
2024-04-30T01:49:08.281Z,94924.00
2024-04-30T01:50:08.306Z,94925.00
2024-04-30T01:51:08.336Z,94925.00
2024-04-30T01:52:08.417Z,94923.00
2024-04-30T01:53:08.419Z,94923.00
2024-04-30T01:54:08.471Z,94924.00
2024-04-30T01:55:08.532Z,94921.00
2024-04-30T01:56:08.531Z,94922.00
2024-04-30T01:57:08.612Z,94919.00
2024-04-30T01:58:08.641Z,94919.00
2024-04-30T01:59:08.635Z,94914.00
2024-04-30T02:00:08.703Z,94913.00
2024-04-30T02:01:08.777Z,94913.00
2024-04-30T02:02:08.771Z,94914.00
2024-04-30T02:03:08.876Z,94914.00
2024-04-30T02:04:08.864Z,94914.00
2024-04-30T02:05:14.095Z,94916.00
2024-04-30T02:06:09.885Z,94911.00
2024-04-30T02:07:08.924Z,94904.00
2024-04-30T02:08:08.900Z,94906.00
2024-04-30T02:09:08.902Z,94908.00
2024-04-30T02:10:08.938Z,94911.00
2024-04-30T02:11:08.912Z,94910.00
2024-04-30T02:12:08.916Z,94912.00
2024-04-30T02:13:08.947Z,94912.00
2024-04-30T02:14:08.917Z,94913.00
2024-04-30T02:15:08.925Z,94910.00
2024-04-30T02:16:09.012Z,94908.00
2024-04-30T02:17:09.008Z,94906.00
2024-04-30T02:18:08.951Z,94911.00
2024-04-30T02:19:09.024Z,94911.00
2024-04-30T02:20:08.977Z,94911.00
2024-04-30T02:21:09.052Z,94911.00
2024-04-30T02:22:09.073Z,94913.00
2024-04-30T02:23:09.109Z,94918.00
2024-04-30T02:24:09.143Z,94917.00
2024-04-30T02:25:09.275Z,94918.00
2024-04-30T02:26:09.214Z,94916.00
2024-04-30T02:27:09.259Z,94915.00
2024-04-30T02:28:09.334Z,94915.00
2024-04-30T02:29:09.403Z,94917.00
2024-04-30T02:30:09.423Z,94919.00
2024-04-30T02:31:09.539Z,94918.00
2024-04-30T02:32:09.538Z,94919.00
2024-04-30T02:33:09.648Z,94918.00
2024-04-30T02:34:09.682Z,94914.00
2024-04-30T02:35:09.663Z,94911.00
2024-04-30T02:36:09.705Z,94911.00
2024-04-30T02:37:09.757Z,94908.00
2024-04-30T02:38:09.772Z,94906.00
2024-04-30T02:39:09.839Z,94909.00
2024-04-30T02:40:09.925Z,94910.00
2024-04-30T02:41:09.926Z,94915.00
2024-04-30T02:42:09.981Z,94914.00
2024-04-30T02:43:10.069Z,94912.00
2024-04-30T02:44:10.065Z,94907.00
2024-04-30T02:45:10.189Z,94905.00
2024-04-30T02:46:10.187Z,94903.00
2024-04-30T02:47:10.235Z,94902.00
2024-04-30T02:48:10.273Z,94906.00
2024-04-30T02:49:10.310Z,94906.00
2024-04-30T02:50:10.352Z,94908.00
2024-04-30T02:51:10.375Z,94906.00
2024-04-30T02:52:10.463Z,94906.00
2024-04-30T02:53:10.491Z,94902.00
2024-04-30T02:54:10.521Z,94903.00
2024-04-30T02:55:10.589Z,94905.00
2024-04-30T02:56:10.616Z,94907.00
2024-04-30T02:57:10.653Z,94907.00
2024-04-30T02:58:10.737Z,94903.00
2024-04-30T02:59:10.743Z,94902.00
2024-04-30T03:00:10.767Z,94903.00
2024-04-30T03:01:10.871Z,94901.00
2024-04-30T03:02:10.887Z,94900.00
2024-04-30T03:03:10.958Z,94903.00
2024-04-30T03:04:11.209Z,94904.00
2024-04-30T03:05:10.999Z,94904.00
2024-04-30T03:06:11.042Z,94901.00
2024-04-30T03:07:11.123Z,94895.00
2024-04-30T03:08:11.135Z,94892.00
2024-04-30T03:09:11.201Z,94892.00
2024-04-30T03:10:11.244Z,94895.00
2024-04-30T03:11:11.298Z,94897.00
2024-04-30T03:12:11.306Z,94901.00
2024-04-30T03:13:11.417Z,94903.00
2024-04-30T03:14:11.392Z,94902.00
2024-04-30T03:15:13.336Z,94906.00
2024-04-30T03:16:11.462Z,94904.00
2024-04-30T03:17:11.439Z,94899.00
2024-04-30T03:18:11.470Z,94898.00
2024-04-30T03:19:11.487Z,94898.00
2024-04-30T03:20:11.437Z,94898.00
2024-04-30T03:21:11.451Z,94899.00
2024-04-30T03:22:11.456Z,94900.00
2024-04-30T03:23:11.488Z,94900.00
2024-04-30T03:24:11.467Z,94899.00
2024-04-30T03:25:13.376Z,94900.00
2024-04-30T03:26:11.450Z,94900.00
2024-04-30T03:27:11.447Z,94900.00
2024-04-30T03:28:11.463Z,94900.00
2024-04-30T03:29:11.458Z,94899.00
2024-04-30T03:30:11.468Z,94901.00
2024-04-30T03:31:11.527Z,94901.00
2024-04-30T03:32:11.451Z,94901.00
2024-04-30T03:33:11.598Z,94898.00
2024-04-30T03:34:11.509Z,94898.00
2024-04-30T03:35:11.457Z,94900.00
2024-04-30T03:36:11.453Z,94902.00
2024-04-30T03:37:11.463Z,94907.00
2024-04-30T03:38:11.497Z,94908.00
2024-04-30T03:39:11.572Z,94911.00
2024-04-30T03:40:11.607Z,94913.00
2024-04-30T03:41:11.667Z,94916.00
2024-04-30T03:42:11.674Z,94913.00
2024-04-30T03:43:11.820Z,94905.00
2024-04-30T03:44:11.789Z,94903.00
2024-04-30T03:45:11.819Z,94896.00
2024-04-30T03:46:11.873Z,94897.00
2024-04-30T03:47:11.935Z,94896.00
2024-04-30T03:48:11.976Z,94899.00
2024-04-30T03:49:12.068Z,94906.00
2024-04-30T03:50:12.038Z,94910.00
2024-04-30T03:51:12.109Z,94912.00
2024-04-30T03:52:12.123Z,94913.00
2024-04-30T03:53:12.145Z,94911.00
2024-04-30T03:54:12.227Z,94909.00
2024-04-30T03:55:12.337Z,94903.00
2024-04-30T03:56:12.267Z,94902.00
2024-04-30T03:57:12.323Z,94903.00
2024-04-30T03:58:12.365Z,94903.00
2024-04-30T03:59:12.390Z,94903.00
2024-04-30T04:00:12.454Z,94906.00
2024-04-30T04:01:12.538Z,94910.00
2024-04-30T04:02:12.508Z,94911.00
2024-04-30T04:03:12.571Z,94909.00
2024-04-30T04:04:12.683Z,94910.00
2024-04-30T04:05:12.666Z,94910.00
2024-04-30T04:06:16.071Z,94909.00
2024-04-30T04:07:12.701Z,94905.00
2024-04-30T04:08:12.661Z,94906.00
2024-04-30T04:09:12.689Z,94904.00
2024-04-30T04:10:12.732Z,94906.00
2024-04-30T04:11:12.693Z,94905.00
2024-04-30T04:12:12.680Z,94906.00
2024-04-30T04:13:12.707Z,94908.00
2024-04-30T04:14:12.675Z,94910.00
2024-04-30T04:15:12.683Z,94910.00
2024-04-30T04:16:12.668Z,94909.00
2024-04-30T04:17:12.662Z,94910.00
2024-04-30T04:18:12.811Z,94910.00
2024-04-30T04:19:12.709Z,94911.00
2024-04-30T04:20:12.679Z,94912.00
2024-04-30T04:21:21.895Z,94914.00
2024-04-30T04:22:19.893Z,94913.00
2024-04-30T04:23:19.863Z,94915.00
2024-04-30T04:24:19.867Z,94917.00
2024-04-30T04:25:19.866Z,94914.00
2024-04-30T04:26:19.860Z,94911.00
2024-04-30T04:27:19.844Z,94909.00
2024-04-30T04:28:19.936Z,94906.00
2024-04-30T04:29:19.881Z,94907.00
2024-04-30T04:30:19.876Z,94910.00
2024-04-30T04:31:27.117Z,94913.00
2024-04-30T04:32:27.150Z,94915.00
2024-04-30T04:33:27.204Z,94918.00
2024-04-30T04:34:27.088Z,94915.00
2024-04-30T04:35:27.073Z,94912.00
2024-04-30T04:36:27.068Z,94906.00
2024-04-30T04:37:27.658Z,94902.00
2024-04-30T04:38:27.076Z,94904.00
2024-04-30T04:39:27.074Z,94909.00
2024-04-30T04:40:27.152Z,94913.00
2024-04-30T04:41:27.095Z,94913.00
2024-04-30T04:42:27.104Z,94912.00
2024-04-30T04:43:27.210Z,94911.00
2024-04-30T04:44:27.073Z,94912.00
2024-04-30T04:45:27.099Z,94913.00
2024-04-30T04:46:27.142Z,94913.00
2024-04-30T04:47:27.133Z,94912.00
2024-04-30T04:48:27.159Z,94909.00
2024-04-30T04:49:27.127Z,94910.00
2024-04-30T04:50:27.081Z,94907.00
2024-04-30T04:51:27.105Z,94907.00
2024-04-30T04:52:27.075Z,94905.00
2024-04-30T04:53:27.122Z,94908.00
2024-04-30T04:54:27.078Z,94911.00
2024-04-30T04:55:27.137Z,94910.00
2024-04-30T04:56:27.166Z,94909.00
2024-04-30T04:57:27.185Z,94907.00
2024-04-30T04:58:27.242Z,94909.00
2024-04-30T04:59:27.254Z,94909.00
2024-04-30T05:00:27.320Z,94909.00
2024-04-30T05:01:27.369Z,94909.00
2024-04-30T05:02:27.524Z,94909.00
2024-04-30T05:03:27.758Z,94908.00
2024-04-30T05:04:27.583Z,94910.00
2024-04-30T05:05:27.502Z,94909.00
2024-04-30T05:06:27.577Z,94906.00
2024-04-30T05:07:27.707Z,94906.00
2024-04-30T05:08:27.640Z,94905.00
2024-04-30T05:09:27.671Z,94904.00
2024-04-30T05:10:27.760Z,94901.00
2024-04-30T05:11:27.792Z,94903.00
2024-04-30T05:12:27.821Z,94902.00
2024-04-30T05:13:27.869Z,94898.00
2024-04-30T05:14:27.885Z,94898.00
2024-04-30T05:15:27.903Z,94903.00
2024-04-30T05:16:27.953Z,94905.00
2024-04-30T05:17:28.076Z,94907.00
2024-04-30T05:18:28.010Z,94907.00
2024-04-30T05:19:28.082Z,94906.00
2024-04-30T05:20:28.081Z,94909.00
2024-04-30T05:21:28.100Z,94912.00
2024-04-30T05:22:28.225Z,94916.00
2024-04-30T05:23:28.187Z,94916.00
2024-04-30T05:24:28.246Z,94918.00
2024-04-30T05:25:28.302Z,94916.00
2024-04-30T05:26:28.318Z,94913.00
2024-04-30T05:27:28.398Z,94910.00
2024-04-30T05:28:28.539Z,94910.00
2024-04-30T05:29:28.445Z,94912.00
2024-04-30T05:30:28.466Z,94914.00
2024-04-30T05:31:28.561Z,94911.00
2024-04-30T05:32:28.568Z,94909.00
2024-04-30T05:33:28.948Z,94908.00
2024-04-30T05:34:28.776Z,94907.00
2024-04-30T05:35:28.644Z,94904.00
2024-04-30T05:36:28.678Z,94902.00
2024-04-30T05:37:28.713Z,94907.00
2024-04-30T05:38:28.687Z,94907.00
2024-04-30T05:39:28.765Z,94902.00
2024-04-30T05:40:28.729Z,94896.00
2024-04-30T05:41:28.735Z,94894.00
2024-04-30T05:42:28.748Z,94893.00
2024-04-30T05:43:28.751Z,94889.00
2024-04-30T05:44:28.754Z,94886.00
2024-04-30T05:45:28.845Z,94886.00
2024-04-30T05:46:28.984Z,94889.00
2024-04-30T05:47:28.933Z,94887.00
2024-04-30T05:48:29.226Z,94885.00
2024-04-30T05:49:29.129Z,94883.00
2024-04-30T05:50:29.135Z,94882.00
2024-04-30T05:51:29.196Z,94881.00
2024-04-30T05:52:29.277Z,94880.00
2024-04-30T05:53:29.398Z,94880.00
2024-04-30T05:54:30.187Z,94881.00
2024-04-30T05:55:29.559Z,94879.00
2024-04-30T05:56:29.496Z,94880.00
2024-04-30T05:57:29.568Z,94877.00
2024-04-30T05:58:29.630Z,94877.00
2024-04-30T05:59:29.648Z,94876.00
2024-04-30T06:00:29.692Z,94875.00
2024-04-30T06:01:29.749Z,94877.00
2024-04-30T06:02:29.758Z,94873.00
2024-04-30T06:03:29.937Z,94874.00
2024-04-30T06:04:29.929Z,94875.00
2024-04-30T06:05:30.078Z,94880.00
2024-04-30T06:06:29.988Z,94883.00
2024-04-30T06:07:30.054Z,94884.00
2024-04-30T06:08:30.056Z,94886.00
2024-04-30T06:09:30.051Z,94887.00
2024-04-30T06:10:30.157Z,94888.00
2024-04-30T06:11:30.225Z,94891.00
2024-04-30T06:12:30.238Z,94895.00
2024-04-30T06:13:30.348Z,94893.00
2024-04-30T06:14:30.333Z,94892.00
2024-04-30T06:15:30.390Z,94894.00
2024-04-30T06:16:30.475Z,94890.00
2024-04-30T06:18:30.569Z,94894.00
2024-04-30T06:19:30.619Z,94894.00
2024-04-30T06:20:30.650Z,94895.00
2024-04-30T06:21:36.105Z,94893.00
2024-04-30T06:22:31.756Z,94896.00
2024-04-30T06:23:30.670Z,94899.00
2024-04-30T06:24:30.693Z,94896.00
2024-04-30T06:25:30.768Z,94890.00
2024-04-30T06:26:30.694Z,94885.00
2024-04-30T06:27:30.682Z,94883.00
2024-04-30T06:28:34.030Z,94883.00
2024-04-30T06:29:30.700Z,94886.00
2024-04-30T06:30:30.674Z,94885.00
2024-04-30T06:31:30.721Z,94884.00
2024-04-30T06:32:30.734Z,94887.00
2024-04-30T06:33:30.770Z,94888.00
2024-04-30T06:34:30.794Z,94884.00
2024-04-30T06:35:30.724Z,94882.00
2024-04-30T06:36:30.693Z,94871.00
2024-04-30T06:37:30.847Z,94868.00
2024-04-30T06:38:30.797Z,94866.00
2024-04-30T06:39:30.719Z,94870.00
2024-04-30T06:40:30.792Z,94868.00
2024-04-30T06:41:30.716Z,94866.00
2024-04-30T06:42:30.749Z,94872.00
2024-04-30T06:43:30.744Z,94875.00
2024-04-30T06:44:30.713Z,94876.00
2024-04-30T06:45:30.712Z,94872.00
2024-04-30T06:46:30.748Z,94868.00
2024-04-30T06:47:30.798Z,94866.00
2024-04-30T06:48:30.880Z,94869.00
2024-04-30T06:49:30.738Z,94863.00
2024-04-30T06:50:30.722Z,94862.00
2024-04-30T06:51:30.738Z,94866.00
2024-04-30T06:52:30.850Z,94864.00
2024-04-30T06:53:30.733Z,94855.00
2024-04-30T06:54:30.734Z,94853.00
2024-04-30T06:55:30.794Z,94854.00
2024-04-30T06:56:30.733Z,94853.00
2024-04-30T06:57:30.738Z,94853.00
2024-04-30T06:58:30.786Z,94856.00
2024-04-30T06:59:30.737Z,94853.00
2024-04-30T07:00:30.782Z,94852.00
2024-04-30T07:01:30.777Z,94853.00
2024-04-30T07:02:30.763Z,94849.00
2024-04-30T07:03:30.736Z,94845.00
2024-04-30T07:04:30.829Z,94842.00
2024-04-30T07:05:30.897Z,94842.00
2024-04-30T07:06:30.749Z,94845.00
2024-04-30T07:07:30.830Z,94840.00
2024-04-30T07:08:30.730Z,94838.00
2024-04-30T07:09:30.778Z,94836.00
2024-04-30T07:10:30.821Z,94834.00
2024-04-30T07:11:31.081Z,94831.00
2024-04-30T07:12:30.764Z,94830.00
2024-04-30T07:13:30.785Z,94826.00
2024-04-30T07:14:30.818Z,94824.00
2024-04-30T07:15:30.735Z,94821.00
2024-04-30T07:16:30.995Z,94816.00
2024-04-30T07:17:30.873Z,94814.00
2024-04-30T07:18:30.977Z,94812.00
2024-04-30T07:19:30.831Z,94813.00
2024-04-30T07:20:30.780Z,94817.00
2024-04-30T07:21:30.842Z,94816.00
2024-04-30T07:22:30.891Z,94812.00
2024-04-30T07:23:30.846Z,94808.00
2024-04-30T07:24:31.228Z,94808.00
2024-04-30T07:25:30.821Z,94809.00
2024-04-30T07:26:30.783Z,94808.00
2024-04-30T07:27:30.818Z,94804.00
2024-04-30T07:28:30.860Z,94804.00
2024-04-30T07:29:30.800Z,94805.00
2024-04-30T07:30:30.784Z,94802.00
2024-04-30T07:31:30.921Z,94799.00
2024-04-30T07:32:30.922Z,94798.00
2024-04-30T07:33:30.821Z,94796.00
2024-04-30T07:34:30.899Z,94794.00
2024-04-30T07:35:30.785Z,94789.00
2024-04-30T07:36:30.882Z,94789.00
2024-04-30T07:37:30.817Z,94788.00
2024-04-30T07:38:30.790Z,94785.00
2024-04-30T07:39:30.805Z,94778.00
2024-04-30T07:40:30.932Z,94773.00
2024-04-30T07:41:30.778Z,94771.00
2024-04-30T07:42:30.811Z,94771.00
2024-04-30T07:43:31.802Z,94772.00
2024-04-30T07:44:31.262Z,94778.00
2024-04-30T07:45:30.901Z,94778.00
2024-04-30T07:46:30.983Z,94779.00
2024-04-30T07:47:31.116Z,94771.00
2024-04-30T07:48:31.276Z,94768.00
2024-04-30T07:49:31.229Z,94768.00
2024-04-30T07:50:31.177Z,94772.00
2024-04-30T07:51:31.283Z,94771.00
2024-04-30T07:52:31.319Z,94770.00
2024-04-30T07:53:31.354Z,94769.00
2024-04-30T07:54:31.462Z,94770.00
2024-04-30T07:55:31.544Z,94772.00
2024-04-30T07:56:31.507Z,94769.00
2024-04-30T07:57:31.563Z,94767.00
2024-04-30T07:58:31.671Z,94764.00
2024-04-30T07:59:31.648Z,94764.00
2024-04-30T08:00:31.703Z,94758.00
2024-04-30T08:01:31.844Z,94753.00
2024-04-30T08:02:31.829Z,94754.00
2024-04-30T08:03:32.341Z,94761.00
2024-04-30T08:04:38.248Z,94760.00
2024-04-30T08:05:42.057Z,94759.00
2024-04-30T08:06:32.883Z,94753.00
2024-04-30T08:07:31.975Z,94750.00
2024-04-30T08:08:31.926Z,94751.00
2024-04-30T08:09:31.892Z,94748.00
2024-04-30T08:10:31.901Z,94742.00
2024-04-30T08:11:31.915Z,94741.00
2024-04-30T08:12:31.888Z,94740.00
2024-04-30T08:13:31.898Z,94740.00
2024-04-30T08:14:35.544Z,94741.00
2024-04-30T08:15:31.896Z,94738.00
2024-04-30T08:16:31.982Z,94740.00
2024-04-30T08:17:31.957Z,94733.00
2024-04-30T08:18:31.897Z,94732.00
2024-04-30T08:19:31.995Z,94730.00
2024-04-30T08:20:31.899Z,94727.00
2024-04-30T08:21:32.824Z,94726.00
2024-04-30T08:22:31.973Z,94728.00
2024-04-30T08:23:31.945Z,94729.00
2024-04-30T08:24:32.284Z,94721.00
2024-04-30T08:25:32.040Z,94717.00
2024-04-30T08:26:31.896Z,94718.00
2024-04-30T08:27:31.924Z,94718.00
2024-04-30T08:28:31.990Z,94717.00
2024-04-30T08:29:31.957Z,94719.00
2024-04-30T08:30:31.937Z,94719.00
2024-04-30T08:31:31.944Z,94713.00
2024-04-30T08:32:32.016Z,94708.00
2024-04-30T08:33:31.969Z,94703.00
2024-04-30T08:34:31.920Z,94700.00
2024-04-30T08:35:31.930Z,94698.00
2024-04-30T08:36:32.897Z,94698.00
2024-04-30T08:37:34.419Z,94696.00
2024-04-30T08:38:32.950Z,94696.00
2024-04-30T08:39:32.280Z,94696.00
2024-04-30T08:40:31.951Z,94697.00
2024-04-30T08:41:31.929Z,94696.00
2024-04-30T08:42:31.966Z,94691.00
2024-04-30T08:43:31.951Z,94686.00
2024-04-30T08:44:32.292Z,94684.00
2024-04-30T08:45:31.999Z,94682.00
2024-04-30T08:46:31.970Z,94681.00
2024-04-30T08:47:32.097Z,94676.00
2024-04-30T08:48:31.987Z,94668.00
2024-04-30T08:49:38.551Z,94668.00
2024-04-30T08:50:33.868Z,94668.00
2024-04-30T08:51:32.059Z,94668.00
2024-04-30T08:52:32.083Z,94671.00
2024-04-30T08:53:32.813Z,94667.00
2024-04-30T08:54:32.789Z,94668.00
2024-04-30T08:55:32.079Z,94666.00
2024-04-30T08:56:32.106Z,94662.00
2024-04-30T08:57:32.055Z,94658.00
2024-04-30T08:58:32.089Z,94650.00
2024-04-30T08:59:32.287Z,94647.00
2024-04-30T09:00:32.088Z,94651.00
2024-04-30T09:01:32.152Z,94658.00
2024-04-30T09:02:32.149Z,94658.00
2024-04-30T09:03:32.155Z,94653.00
2024-04-30T09:04:32.392Z,94649.00
2024-04-30T09:05:32.287Z,94657.00
2024-04-30T09:06:32.244Z,94639.00
2024-04-30T09:07:32.457Z,94634.00
2024-04-30T09:08:32.404Z,94640.00
2024-04-30T09:09:32.506Z,94635.00
2024-04-30T09:10:32.531Z,94632.00
2024-04-30T09:11:32.716Z,94627.00
2024-04-30T09:12:32.704Z,94624.00
2024-04-30T09:13:32.824Z,94622.00
2024-04-30T09:14:32.755Z,94618.00
2024-04-30T09:15:32.755Z,94625.00
2024-04-30T09:16:32.774Z,94621.00
2024-04-30T09:17:32.804Z,94612.00
2024-04-30T09:18:32.824Z,94606.00
2024-04-30T09:19:32.885Z,94603.00
2024-04-30T09:20:32.813Z,94597.00
2024-04-30T09:21:32.810Z,94600.00
2024-04-30T09:22:32.904Z,94596.00
2024-04-30T09:23:32.833Z,94598.00
2024-04-30T09:24:32.924Z,94595.00
2024-04-30T09:25:32.969Z,94592.00
2024-04-30T09:26:32.983Z,94591.00
2024-04-30T09:27:33.088Z,94593.00
2024-04-30T09:28:33.137Z,94586.00
2024-04-30T09:29:33.178Z,94584.00
2024-04-30T09:30:33.285Z,94588.00
2024-04-30T09:31:33.239Z,94584.00
2024-04-30T09:32:33.274Z,94583.00
2024-04-30T09:33:33.503Z,94586.00
2024-04-30T09:34:33.346Z,94584.00
2024-04-30T09:35:33.254Z,94579.00
2024-04-30T09:36:33.293Z,94578.00
2024-04-30T09:37:33.410Z,94570.00
2024-04-30T09:38:33.330Z,94575.00
2024-04-30T09:39:33.777Z,94567.00
2024-04-30T09:40:33.377Z,94569.00
2024-04-30T09:41:33.814Z,94564.00
2024-04-30T09:42:33.401Z,94571.00
2024-04-30T09:43:33.472Z,94566.00
2024-04-30T09:44:33.395Z,94564.00
2024-04-30T09:45:33.435Z,94567.00
2024-04-30T09:46:33.528Z,94559.00
2024-04-30T09:47:33.465Z,94559.00
2024-04-30T09:48:33.448Z,94563.00
2024-04-30T09:49:33.471Z,94562.00
2024-04-30T09:50:33.432Z,94568.00
2024-04-30T09:51:34.463Z,94570.00
2024-04-30T09:52:33.552Z,94555.00
2024-04-30T09:53:33.611Z,94558.00
2024-04-30T09:54:33.833Z,94568.00
2024-04-30T09:55:33.723Z,94568.00
2024-04-30T09:56:33.695Z,94551.00
2024-04-30T09:57:33.800Z,94560.00
2024-04-30T09:58:33.967Z,94555.00
2024-04-30T09:59:33.884Z,94554.00
2024-04-30T10:00:33.912Z,94540.00
2024-04-30T10:01:34.038Z,94541.00
2024-04-30T10:02:34.034Z,94532.00
2024-04-30T10:03:34.017Z,94523.00
2024-04-30T10:04:34.140Z,94519.00
2024-04-30T10:05:34.040Z,94535.00
2024-04-30T10:06:34.065Z,94534.00
2024-04-30T10:07:34.138Z,94522.00
2024-04-30T10:08:34.175Z,94533.00
2024-04-30T10:09:34.207Z,94533.00
2024-04-30T10:10:34.263Z,94542.00
2024-04-30T10:11:34.422Z,94529.00
2024-04-30T10:12:34.261Z,94540.00
2024-04-30T10:13:34.410Z,94532.00
2024-04-30T10:14:34.306Z,94532.00
2024-04-30T10:15:34.427Z,94566.00
2024-04-30T10:16:34.491Z,94539.00
2024-04-30T10:17:34.528Z,94546.00
2024-04-30T10:18:35.058Z,94533.00
2024-04-30T10:19:34.460Z,94528.00
2024-04-30T10:20:34.739Z,94535.00
2024-04-30T10:21:34.516Z,94533.00
2024-04-30T10:22:34.575Z,94532.00
2024-04-30T10:23:34.491Z,94534.00
2024-04-30T10:24:34.473Z,94534.00
2024-04-30T10:25:34.646Z,94531.00
2024-04-30T10:26:34.503Z,94533.00
2024-04-30T10:27:34.544Z,94529.00
2024-04-30T10:28:34.616Z,94535.00
2024-04-30T10:29:34.678Z,94534.00
2024-04-30T10:30:34.694Z,94530.00
2024-04-30T10:31:34.797Z,94534.00
2024-04-30T10:32:34.952Z,94538.00
2024-04-30T10:33:34.920Z,94547.00
2024-04-30T10:34:35.412Z,94545.00
2024-04-30T10:35:35.067Z,94535.00
2024-04-30T10:36:35.318Z,94517.00
2024-04-30T10:37:35.228Z,94516.00
2024-04-30T10:38:35.245Z,94515.00
2024-04-30T10:39:35.308Z,94524.00
2024-04-30T10:40:35.335Z,94524.00
2024-04-30T10:41:35.349Z,94525.00
2024-04-30T10:42:35.278Z,94533.00
2024-04-30T10:43:35.352Z,94532.00
2024-04-30T10:44:35.334Z,94527.00
2024-04-30T10:45:35.316Z,94523.00
2024-04-30T10:46:35.376Z,94518.00
2024-04-30T10:47:35.466Z,94532.00
2024-04-30T10:48:35.386Z,94543.00
2024-04-30T10:49:35.358Z,94539.00
2024-04-30T10:50:35.322Z,94542.00
2024-04-30T10:51:35.335Z,94542.00
2024-04-30T10:52:35.391Z,94547.00
2024-04-30T10:53:35.363Z,94531.00
2024-04-30T10:54:35.432Z,94532.00
2024-04-30T10:55:35.398Z,94532.00
2024-04-30T10:56:35.367Z,94521.00
2024-04-30T10:57:35.379Z,94522.00
2024-04-30T10:58:35.435Z,94523.00
2024-04-30T10:59:35.488Z,94531.00
2024-04-30T11:00:35.490Z,94531.00
2024-04-30T11:01:35.736Z,94532.00
2024-04-30T11:02:35.501Z,94526.00
2024-04-30T11:03:35.501Z,94527.00
2024-04-30T11:04:35.553Z,94520.00
2024-04-30T11:05:35.581Z,94517.00
2024-04-30T11:06:35.609Z,94514.00
2024-04-30T11:07:35.559Z,94511.00
2024-04-30T11:08:35.524Z,94512.00
2024-04-30T11:09:35.490Z,94513.00
2024-04-30T11:10:35.552Z,94517.00
2024-04-30T11:11:35.582Z,94521.00
2024-04-30T11:12:35.592Z,94525.00
2024-04-30T11:13:35.576Z,94527.00
2024-04-30T11:14:35.556Z,94526.00
2024-04-30T11:15:35.556Z,94523.00
2024-04-30T11:16:35.679Z,94517.00
2024-04-30T11:17:35.658Z,94521.00
2024-04-30T11:18:35.680Z,94525.00
2024-04-30T11:19:35.891Z,94532.00
2024-04-30T11:20:35.656Z,94522.00
2024-04-30T11:21:35.715Z,94522.00
2024-04-30T11:22:36.387Z,94527.00
2024-04-30T11:23:35.738Z,94517.00
2024-04-30T11:24:35.865Z,94517.00
2024-04-30T11:25:35.793Z,94525.00
2024-04-30T11:26:35.799Z,94527.00
2024-04-30T11:27:35.841Z,94519.00
2024-04-30T11:28:35.950Z,94535.00
2024-04-30T11:29:40.076Z,94535.00
2024-04-30T11:30:35.917Z,94538.00
2024-04-30T11:31:35.972Z,94554.00
2024-04-30T11:32:36.093Z,94543.00
2024-04-30T11:33:35.908Z,94536.00
2024-04-30T11:34:36.019Z,94536.00
2024-04-30T11:35:35.937Z,94542.00
2024-04-30T11:36:35.913Z,94536.00
2024-04-30T11:37:35.985Z,94531.00
2024-04-30T11:38:35.971Z,94528.00
2024-04-30T11:39:35.925Z,94521.00
2024-04-30T11:40:35.931Z,94521.00
2024-04-30T11:41:37.033Z,94521.00
2024-04-30T11:42:42.491Z,94515.00
2024-04-30T11:43:36.951Z,94514.00
2024-04-30T11:44:35.929Z,94512.00
2024-04-30T11:45:35.933Z,94506.00